Terminal Aerodrome Forecast
Issued by NWS

Home | Current Version | Previous Version | Text Only | Print | Product List | Glossary On
Versions: 1 2 3 4 5 6 7 8 9 10 11 12 13 14 15 16
000
FTUS45 KABQ 242339
TAFSAF
TAF
KSAF 242339Z 2500/2524 26011KT P6SM VCSH BKN070
     FM250200 32007KT P6SM SCT080
     FM251000 35007KT P6SM SCT035
     FM251600 35007KT P6SM FEW050
     FM252000 25012G21KT P6SM -SHRA BKN060=

USA.gov is the U.S. government's official web portal to all federal, state and local government web resources and services.